Time;durP1;ratioP1;P1;durP2;ratioP2;P2;SDS_P1;SDS_P2;PMS_P1;PMS_P2;Temp;Humidity;BMP_temperature;BMP_pressure;BME280_temperature;BME280_humidity;BME280_pressure;Samples;Min_cycle;Max_cycle;Signal;HPM_P1;HPM_P2
2023/07/14 00:01:24;;;;;;;14.10;13.30;;;17.60;1.00;;;;;;5075579;28;20868;-54
2023/07/14 00:03:50;;;;;;;13.13;12.40;;;17.60;1.00;;;;;;5067998;28;20438;-51
2023/07/14 00:06:17;;;;;;;13.60;12.90;;;17.50;1.00;;;;;;5078506;28;20426;-48
2023/07/14 00:08:44;;;;;;;14.10;13.10;;;17.50;1.00;;;;;;5073505;28;20462;-55
2023/07/14 00:11:24;;;;;;;13.87;13.13;;;17.40;1.00;;;;;;5060096;28;20439;-44
2023/07/14 00:13:51;;;;;;;14.20;13.40;;;17.40;1.00;;;;;;5073170;28;20441;-48
2023/07/14 00:16:23;;;;;;;14.57;13.63;;;17.30;1.00;;;;;;5079864;28;20418;-48
2023/07/14 00:18:49;;;;;;;13.83;12.93;;;17.30;1.00;;;;;;5069341;28;20435;-54
2023/07/14 00:21:18;;;;;;;13.47;12.77;;;17.30;1.00;;;;;;5081853;28;20415;-52
2023/07/14 00:23:45;;;;;;;14.10;13.20;;;17.30;8.80;;;;;;5073968;28;20823;-47
2023/07/14 00:26:19;;;;;;;14.33;13.37;;;17.30;99.90;;;;;;5071141;28;20863;-50
2023/07/14 00:28:48;;;;;;;13.50;12.80;;;17.20;1.00;;;;;;5082332;28;20457;-52
2023/07/14 00:31:16;;;;;;;13.50;12.67;;;17.10;1.00;;;;;;5082073;28;20812;-48
2023/07/14 00:33:44;;;;;;;14.40;13.50;;;17.10;1.00;;;;;;5079041;28;20435;-50
2023/07/14 00:36:12;;;;;;;14.00;13.30;;;17.10;1.00;;;;;;5070210;28;20516;-54
2023/07/14 00:38:38;;;;;;;13.97;13.27;;;17.00;99.90;;;;;;5076569;28;20981;-50
2023/07/14 00:41:07;;;;;;;13.90;13.10;;;17.00;1.00;;;;;;5081843;28;20406;-52
2023/07/14 00:43:34;;;;;;;14.17;13.33;;;16.90;1.00;;;;;;5078198;28;21570;-51
2023/07/14 00:46:01;;;;;;;13.57;12.87;;;16.90;42.40;;;;;;5070506;28;20487;-51
2023/07/14 00:48:28;;;;;;;14.20;13.50;;;16.80;99.90;;;;;;5076980;28;20462;-51
2023/07/14 00:51:05;;;;;;;14.47;13.57;;;16.80;1.00;;;;;;5078841;28;20510;-50
2023/07/14 00:53:34;;;;;;;13.83;13.03;;;16.80;1.00;;;;;;5074518;28;20962;-48
2023/07/14 00:56:15;;;;;;;13.70;13.00;;;16.80;1.00;;;;;;5072607;28;20410;-56
2023/07/14 00:58:45;;;;;;;14.40;13.50;;;16.80;1.00;;;;;;5075824;28;20468;-51
2023/07/14 01:01:12;;;;;;;14.10;13.40;;;16.80;1.00;;;;;;5081841;28;20418;-52
2023/07/14 01:03:40;;;;;;;13.83;13.10;;;16.80;1.00;;;;;;5070052;28;20440;-50
2023/07/14 01:06:27;;;;;;;13.83;13.17;;;16.80;99.90;;;;;;5066493;28;20749;-50
2023/07/14 01:09:08;;;;;;;14.20;13.40;;;16.80;99.90;;;;;;5069087;28;20979;-51
2023/07/14 01:11:49;;;;;;;14.20;13.50;;;16.80;99.90;;;;;;5077579;28;20431;-50
2023/07/14 01:14:28;;;;;;;14.60;13.87;;;16.70;91.80;;;;;;5071394;28;20418;-50
2023/07/14 01:16:55;;;;;;;14.80;13.80;;;16.70;99.90;;;;;;5077850;28;20449;-48
2023/07/14 01:19:45;;;;;;;14.03;13.20;;;16.60;99.90;;;;;;5079368;28;20422;-44
2023/07/14 01:22:19;;;;;;;14.40;13.60;;;16.60;76.00;;;;;;5072529;28;20994;-55
2023/07/14 01:25:01;;;;;;;13.97;13.27;;;16.50;99.90;;;;;;5065853;28;21031;-52
2023/07/14 01:27:26;;;;;;;14.30;13.60;;;16.50;99.90;;;;;;5072691;28;20449;-51
2023/07/14 01:29:53;;;;;;;14.60;13.80;;;16.50;99.90;;;;;;5067741;28;20588;-53
2023/07/14 01:32:22;;;;;;;15.00;14.20;;;16.40;1.00;;;;;;5080715;28;20541;-48
2023/07/14 01:34:49;;;;;;;14.73;13.90;;;16.30;99.90;;;;;;5078367;28;20431;-50
2023/07/14 01:37:19;;;;;;;15.10;14.00;;;16.30;1.00;;;;;;5080402;28;20793;-52
2023/07/14 01:39:46;;;;;;;14.33;13.57;;;16.30;99.90;;;;;;5079629;28;21154;-55
2023/07/14 01:42:12;;;;;;;13.90;13.13;;;16.30;99.90;;;;;;5074752;28;20411;-50
2023/07/14 01:44:38;;;;;;;14.50;13.63;;;16.30;99.90;;;;;;5075132;28;20430;-53
2023/07/14 01:47:07;;;;;;;14.17;13.37;;;16.30;99.90;;;;;;5068388;28;20538;-52
2023/07/14 01:49:36;;;;;;;14.27;13.37;;;16.30;1.00;;;;;;5074210;28;20502;-52
2023/07/14 01:52:04;;;;;;;14.10;13.40;;;16.30;99.90;;;;;;5065325;28;20435;-48
2023/07/14 01:54:29;;;;;;;14.20;13.50;;;16.40;1.00;;;;;;5068831;28;21275;-52
2023/07/14 01:56:59;;;;;;;14.10;13.30;;;16.40;1.00;;;;;;5078561;28;20480;-50
2023/07/14 01:59:29;;;;;;;13.87;13.17;;;16.40;99.90;;;;;;5078266;28;20189;-53
2023/07/14 02:01:59;;;;;;;14.40;13.60;;;16.40;99.90;;;;;;5080070;28;20493;-53
2023/07/14 02:04:35;;;;;;;14.87;13.87;;;16.40;1.00;;;;;;5077273;28;20559;-51
2023/07/14 02:07:01;;;;;;;14.47;13.77;;;16.40;1.00;;;;;;5080213;28;20421;-49
2023/07/14 02:09:28;;;;;;;14.30;13.60;;;16.40;1.00;;;;;;5080047;28;20561;-52
2023/07/14 02:11:59;;;;;;;14.30;13.40;;;16.40;36.10;;;;;;5079456;28;20767;-52
2023/07/14 02:14:32;;;;;;;14.13;13.33;;;16.40;99.90;;;;;;5065164;28;20438;-58
2023/07/14 02:17:03;;;;;;;14.00;13.20;;;16.50;99.90;;;;;;5071173;28;20430;-53
2023/07/14 02:19:29;;;;;;;14.03;13.23;;;16.50;11.40;;;;;;5064327;28;20702;-52
2023/07/14 02:21:55;;;;;;;14.33;13.50;;;16.50;99.90;;;;;;5069974;28;20446;-52
2023/07/14 02:24:24;;;;;;;14.60;13.70;;;16.50;99.90;;;;;;5070957;28;20482;-49
2023/07/14 02:26:56;;;;;;;14.63;13.73;;;16.50;12.80;;;;;;5075293;28;20427;-51
2023/07/14 02:29:22;;;;;;;14.20;13.50;;;16.50;1.00;;;;;;5069151;28;21043;-52
2023/07/14 02:32:04;;;;;;;14.37;13.47;;;16.50;1.00;;;;;;5078287;28;20448;-48
2023/07/14 02:34:36;;;;;;;14.30;13.50;;;16.50;1.00;;;;;;5076148;28;20642;-54
2023/07/14 02:37:04;;;;;;;14.20;13.47;;;16.50;90.00;;;;;;5073078;28;20407;-53
2023/07/14 02:39:36;;;;;;;15.43;14.40;;;16.50;99.90;;;;;;5072038;28;20422;-56
2023/07/14 02:42:03;;;;;;;15.57;14.67;;;16.40;1.00;;;;;;5076093;28;20438;-51
2023/07/14 02:44:36;;;;;;;14.20;13.50;;;16.40;99.90;;;;;;5066841;28;20446;-45
2023/07/14 02:47:10;;;;;;;15.33;14.53;;;16.30;1.00;;;;;;5064534;28;20936;-53
2023/07/14 02:49:36;;;;;;;14.63;13.83;;;16.30;1.00;;;;;;5069729;28;20534;-53
2023/07/14 02:52:02;;;;;;;15.40;14.50;;;16.20;1.00;;;;;;5074965;28;20430;-53
2023/07/14 02:54:28;;;;;;;15.50;14.60;;;16.20;22.60;;;;;;5068418;28;20188;-51
2023/07/14 02:56:54;;;;;;;15.67;14.77;;;16.20;99.90;;;;;;5074262;28;20695;-51
2023/07/14 02:59:20;;;;;;;15.57;14.67;;;16.20;1.00;;;;;;5079280;28;20422;-51
2023/07/14 03:01:45;;;;;;;14.70;13.90;;;16.20;1.00;;;;;;5079149;28;20511;-49
2023/07/14 03:04:11;;;;;;;14.83;14.00;;;16.20;99.90;;;;;;5077763;28;20518;-50
2023/07/14 03:06:37;;;;;;;14.80;13.80;;;16.20;99.90;;;;;;5078602;28;20244;-51
2023/07/14 03:09:02;;;;;;;14.40;13.60;;;16.20;99.90;;;;;;5067019;28;20261;-56
2023/07/14 03:11:28;;;;;;;15.03;14.10;;;16.20;99.90;;;;;;5067107;28;20666;-56
2023/07/14 03:13:54;;;;;;;15.20;14.40;;;16.30;99.90;;;;;;5074739;28;20267;-47
2023/07/14 03:16:20;;;;;;;15.90;14.90;;;16.20;37.30;;;;;;5071609;28;20930;-54
2023/07/14 03:18:45;;;;;;;14.80;13.80;;;16.20;49.50;;;;;;5075750;28;20195;-51
2023/07/14 03:21:11;;;;;;;14.63;13.73;;;16.20;1.00;;;;;;5076148;28;20960;-53
2023/07/14 03:23:37;;;;;;;14.40;13.60;;;16.20;1.00;;;;;;5078726;28;20200;-50
2023/07/14 03:26:05;;;;;;;14.77;13.93;;;16.10;1.00;;;;;;5069687;28;20458;-46
2023/07/14 03:28:32;;;;;;;14.83;14.03;;;16.10;99.90;;;;;;5077482;28;20200;-53
2023/07/14 03:30:58;;;;;;;14.60;13.80;;;16.10;99.90;;;;;;5078156;28;20723;-44
2023/07/14 03:33:24;;;;;;;14.20;13.43;;;16.10;99.90;;;;;;5076260;28;20698;-50
2023/07/14 03:35:50;;;;;;;14.80;13.93;;;16.20;99.90;;;;;;5078900;28;20173;-51
2023/07/14 03:38:16;;;;;;;14.40;13.60;;;16.20;1.00;;;;;;5078143;28;20638;-51
2023/07/14 03:40:42;;;;;;;14.40;13.63;;;16.20;1.00;;;;;;5074959;28;20272;-55
2023/07/14 03:43:07;;;;;;;15.00;14.10;;;16.30;1.00;;;;;;5064175;28;20456;-53
2023/07/14 03:45:34;;;;;;;14.80;13.80;;;16.40;99.90;;;;;;5077420;28;20186;-54
2023/07/14 03:48:00;;;;;;;14.40;13.50;;;16.40;1.00;;;;;;5077898;28;20212;-45
2023/07/14 03:50:26;;;;;;;14.60;13.70;;;16.40;99.90;;;;;;5075905;28;20480;-51
2023/07/14 03:52:52;;;;;;;14.87;13.97;;;16.40;1.00;;;;;;5067882;28;20435;-47
2023/07/14 03:55:18;;;;;;;14.77;13.90;;;16.40;1.00;;;;;;5072540;28;20286;-52
2023/07/14 03:57:43;;;;;;;15.23;14.17;;;16.40;1.00;;;;;;5070027;28;20925;-52
2023/07/14 04:00:14;;;;;;;13.93;13.23;;;16.40;99.90;;;;;;5072003;28;20778;-53
2023/07/14 04:02:44;;;;;;;14.73;13.93;;;16.40;99.90;;;;;;5075221;28;20437;-52
2023/07/14 04:05:11;;;;;;;13.90;13.20;;;16.50;99.90;;;;;;5082321;28;20544;-50
2023/07/14 04:07:37;;;;;;;14.73;13.80;;;16.50;12.20;;;;;;5081086;28;20434;-51
2023/07/14 04:10:04;;;;;;;14.90;14.00;;;16.50;1.00;;;;;;5082610;28;20990;-51
2023/07/14 04:12:31;;;;;;;14.07;13.37;;;16.50;1.00;;;;;;5072378;28;21095;-47
2023/07/14 04:14:57;;;;;;;14.57;13.57;;;16.60;1.00;;;;;;5073366;28;20775;-55
2023/07/14 04:17:23;;;;;;;14.40;13.60;;;16.70;99.90;;;;;;5068858;28;20431;-52
2023/07/14 04:19:49;;;;;;;14.63;13.80;;;16.70;98.40;;;;;;5078713;28;20457;-50
2023/07/14 04:22:15;;;;;;;15.17;13.87;;;16.70;1.00;;;;;;5080286;28;20184;-51
2023/07/14 04:24:41;;;;;;;14.77;13.97;;;16.70;1.00;;;;;;5081727;28;20878;-52
2023/07/14 04:27:06;;;;;;;15.60;14.27;;;16.70;1.00;;;;;;5075655;28;20434;-49
2023/07/14 04:29:32;;;;;;;15.10;14.20;;;16.70;1.00;;;;;;5076162;28;20636;-53
2023/07/14 04:31:58;;;;;;;14.27;13.30;;;16.70;1.00;;;;;;5081168;28;20189;-52
2023/07/14 04:34:27;;;;;;;14.07;13.37;;;16.70;1.00;;;;;;5079932;28;20880;-50
2023/07/14 04:36:53;;;;;;;14.73;13.93;;;16.80;1.00;;;;;;5071856;28;20438;-57
2023/07/14 04:39:19;;;;;;;14.60;13.70;;;16.90;1.00;;;;;;5072050;28;20705;-51
2023/07/14 04:41:45;;;;;;;14.10;13.37;;;16.90;99.90;;;;;;5071008;28;20184;-51
2023/07/14 04:44:14;;;;;;;13.30;12.33;;;17.00;99.90;;;;;;5071326;28;20438;-49
2023/07/14 04:46:40;;;;;;;13.30;12.40;;;17.10;99.90;;;;;;5068188;28;20419;-51
2023/07/14 04:49:10;;;;;;;14.67;13.77;;;17.20;99.90;;;;;;5081498;28;20644;-52
2023/07/14 04:51:36;;;;;;;13.50;12.70;;;17.20;1.00;;;;;;5080158;28;20410;-49
2023/07/14 04:54:02;;;;;;;14.53;13.63;;;17.30;1.00;;;;;;5075197;28;20443;-53
2023/07/14 04:56:29;;;;;;;14.33;13.53;;;17.30;1.00;;;;;;5068556;28;20427;-51
2023/07/14 04:58:54;;;;;;;14.03;13.13;;;17.40;1.00;;;;;;5079569;28;20499;-51
2023/07/14 05:01:20;;;;;;;14.00;13.20;;;17.40;1.00;;;;;;5070737;28;20432;-52
2023/07/14 05:03:46;;;;;;;14.27;13.47;;;17.40;1.00;;;;;;5079837;28;20181;-54
2023/07/14 05:06:12;;;;;;;14.43;13.43;;;17.40;1.00;;;;;;5081318;28;20211;-55
2023/07/14 05:08:38;;;;;;;14.30;13.50;;;17.50;1.00;;;;;;5080971;28;20208;-50
2023/07/14 05:11:04;;;;;;;14.13;13.23;;;17.50;99.90;;;;;;5078359;28;20416;-52
2023/07/14 05:13:30;;;;;;;13.83;13.13;;;17.40;99.90;;;;;;5070977;28;20608;-51
2023/07/14 05:15:57;;;;;;;14.13;13.33;;;17.40;99.90;;;;;;5080461;28;20187;-46
2023/07/14 05:18:23;;;;;;;14.20;13.33;;;17.40;99.90;;;;;;5081439;28;20418;-50
2023/07/14 05:20:49;;;;;;;14.60;13.70;;;17.40;99.90;;;;;;5080428;28;20426;-53
2023/07/14 05:23:16;;;;;;;14.00;13.10;;;17.30;99.90;;;;;;5080762;28;20422;-51
2023/07/14 05:25:42;;;;;;;13.70;12.90;;;17.20;99.90;;;;;;5075695;28;20466;-46
2023/07/14 05:28:09;;;;;;;13.67;12.87;;;17.30;1.00;;;;;;5080939;28;20422;-50
2023/07/14 05:30:36;;;;;;;13.53;12.83;;;17.20;1.00;;;;;;5076947;28;20410;-51
2023/07/14 05:33:02;;;;;;;13.80;13.00;;;17.20;1.00;;;;;;5080760;28;21186;-57
2023/07/14 05:35:28;;;;;;;14.77;13.67;;;17.10;1.00;;;;;;5080408;28;20414;-52
2023/07/14 05:37:56;;;;;;;13.70;13.00;;;17.20;1.00;;;;;;5080509;28;20430;-52
2023/07/14 05:40:22;;;;;;;14.47;13.67;;;17.20;1.00;;;;;;5080491;28;20491;-53
2023/07/14 05:42:47;;;;;;;14.33;13.53;;;17.20;1.00;;;;;;5072006;28;20425;-53
2023/07/14 05:45:14;;;;;;;13.60;12.90;;;17.20;1.00;;;;;;5080151;28;20418;-50
2023/07/14 05:47:43;;;;;;;14.03;13.33;;;17.30;1.00;;;;;;5080472;28;20263;-55
2023/07/14 05:50:09;;;;;;;13.80;12.90;;;17.30;99.90;;;;;;5080360;28;20453;-50
2023/07/14 05:52:35;;;;;;;14.40;13.20;;;17.30;99.90;;;;;;5080107;28;20421;-50
2023/07/14 05:55:03;;;;;;;13.60;12.80;;;17.40;99.90;;;;;;5067809;28;20442;-52
2023/07/14 05:57:29;;;;;;;14.27;13.47;;;17.40;99.90;;;;;;5071737;28;20201;-54
2023/07/14 05:59:55;;;;;;;13.47;12.77;;;17.50;99.90;;;;;;5069769;28;20476;-53
2023/07/14 06:02:21;;;;;;;13.17;12.40;;;17.60;99.90;;;;;;5079651;28;20898;-45
2023/07/14 06:04:46;;;;;;;13.53;12.83;;;17.60;99.90;;;;;;5080548;28;20184;-53
2023/07/14 06:07:13;;;;;;;13.63;12.80;;;17.70;99.90;;;;;;5066324;28;20934;-49
2023/07/14 06:09:39;;;;;;;13.40;12.60;;;17.80;99.90;;;;;;5080264;28;20212;-53
2023/07/14 06:12:07;;;;;;;13.73;12.93;;;18.00;99.90;;;;;;5063477;28;20910;-49
2023/07/14 06:14:34;;;;;;;13.00;12.00;;;18.00;99.90;;;;;;5079995;28;20403;-53
2023/07/14 06:17:00;;;;;;;12.77;12.07;;;18.00;99.90;;;;;;5066678;28;20453;-51
2023/07/14 06:19:27;;;;;;;13.63;12.80;;;18.10;99.90;;;;;;5068026;28;20442;-51
2023/07/14 06:21:53;;;;;;;14.13;13.33;;;18.20;44.40;;;;;;5079857;28;21015;-52
2023/07/14 06:24:20;;;;;;;13.80;13.00;;;18.20;15.40;;;;;;5079590;28;20616;-50
2023/07/14 06:26:45;;;;;;;14.07;13.20;;;18.40;1.00;;;;;;5077206;28;20446;-54
2023/07/14 06:29:11;;;;;;;13.40;12.73;;;18.50;1.00;;;;;;5070697;28;20464;-59
2023/07/14 06:31:36;;;;;;;13.07;12.27;;;18.50;1.00;;;;;;5065654;28;20177;-55
2023/07/14 06:34:03;;;;;;;13.73;12.93;;;18.60;1.00;;;;;;5079596;28;20698;-53
2023/07/14 06:36:29;;;;;;;12.80;12.20;;;18.70;1.00;;;;;;5079293;28;20172;-46
2023/07/14 06:38:54;;;;;;;13.10;12.30;;;18.80;1.00;;;;;;5079902;28;20429;-51
2023/07/14 06:41:20;;;;;;;13.70;13.00;;;18.90;1.00;;;;;;5075666;28;20191;-50
2023/07/14 06:43:46;;;;;;;13.00;12.30;;;18.80;1.00;;;;;;5075533;28;20870;-52
2023/07/14 06:46:11;;;;;;;13.70;12.90;;;18.90;1.00;;;;;;5074402;28;21427;-57
2023/07/14 06:48:37;;;;;;;13.73;13.03;;;18.90;1.00;;;;;;5079609;28;20284;-56
2023/07/14 06:51:03;;;;;;;13.20;12.60;;;19.00;1.00;;;;;;5078148;28;20183;-57
2023/07/14 06:53:29;;;;;;;13.90;13.10;;;19.10;1.00;;;;;;5062649;28;20539;-52
2023/07/14 06:55:54;;;;;;;12.77;12.17;;;19.20;1.00;;;;;;5065699;28;20614;-55
2023/07/14 06:58:20;;;;;;;11.93;11.23;;;19.30;1.00;;;;;;5076893;28;20472;-50
2023/07/14 07:00:47;;;;;;;12.30;11.67;;;19.30;1.00;;;;;;5079480;28;20189;-52
2023/07/14 07:03:13;;;;;;;12.90;12.20;;;19.40;1.00;;;;;;5079656;28;20260;-52
2023/07/14 07:05:42;;;;;;;13.93;13.00;;;19.50;1.00;;;;;;5075359;28;20415;-48
2023/07/14 07:08:10;;;;;;;12.90;12.20;;;19.60;1.00;;;;;;5076568;28;20554;-52
2023/07/14 07:10:35;;;;;;;13.20;12.50;;;19.70;1.00;;;;;;5070914;28;20430;-51
2023/07/14 07:13:01;;;;;;;13.60;12.90;;;19.80;1.00;;;;;;5079248;28;20433;-53
2023/07/14 07:15:27;;;;;;;13.40;12.70;;;19.90;1.00;;;;;;5079124;28;20231;-52
2023/07/14 07:17:53;;;;;;;13.30;12.60;;;20.00;1.00;;;;;;5079171;28;20257;-44
2023/07/14 07:20:19;;;;;;;12.60;11.90;;;20.20;1.00;;;;;;5079290;28;20176;-44
2023/07/14 07:22:46;;;;;;;13.00;12.30;;;20.20;1.00;;;;;;5078953;28;20425;-48
2023/07/14 07:25:12;;;;;;;13.20;12.50;;;20.40;1.00;;;;;;5078530;28;20481;-47
2023/07/14 07:27:37;;;;;;;13.00;12.40;;;20.40;99.90;;;;;;5082837;28;20406;-44
2023/07/14 07:30:04;;;;;;;12.77;12.07;;;20.60;99.90;;;;;;5083264;28;20212;-48
2023/07/14 07:32:31;;;;;;;12.17;11.57;;;20.60;99.90;;;;;;5082934;28;21277;-44
2023/07/14 07:35:00;;;;;;;12.60;11.90;;;20.80;99.90;;;;;;5082682;28;21213;-44
2023/07/14 07:37:33;;;;;;;11.80;11.30;;;20.90;99.90;;;;;;5082755;28;20433;-47
2023/07/14 07:40:00;;;;;;;12.00;11.40;;;21.00;99.90;;;;;;5072331;28;20939;-45
2023/07/14 07:42:27;;;;;;;12.93;12.33;;;21.20;99.90;;;;;;5070048;28;20854;-44
2023/07/14 07:44:53;;;;;;;12.50;11.90;;;21.30;99.90;;;;;;5067837;28;21174;-44
2023/07/14 07:47:18;;;;;;;12.93;12.33;;;21.40;99.90;;;;;;5082183;28;20414;-42
2023/07/14 07:49:44;;;;;;;12.00;11.40;;;21.40;99.90;;;;;;5082739;28;20999;-42
2023/07/14 07:52:12;;;;;;;11.80;11.20;;;21.50;99.90;;;;;;5082468;28;20189;-47
2023/07/14 07:54:38;;;;;;;12.57;11.87;;;21.50;99.90;;;;;;5071208;28;20219;-47
2023/07/14 07:57:06;;;;;;;13.60;12.90;;;21.60;99.90;;;;;;5069903;28;20430;-47
2023/07/14 07:59:32;;;;;;;12.40;11.83;;;21.80;99.90;;;;;;5082915;28;20413;-54
2023/07/14 08:01:58;;;;;;;12.47;11.87;;;21.90;99.90;;;;;;5075764;28;20415;-51
2023/07/14 08:04:23;;;;;;;12.70;11.97;;;21.90;99.90;;;;;;5076659;28;20266;-58
2023/07/14 08:06:49;;;;;;;11.80;11.20;;;22.00;99.90;;;;;;5082223;28;20180;-53
2023/07/14 08:09:14;;;;;;;11.80;11.13;;;22.10;99.90;;;;;;5072483;28;20626;-55
2023/07/14 08:11:40;;;;;;;12.03;11.43;;;22.20;99.90;;;;;;5075701;28;20181;-56
2023/07/14 08:14:11;;;;;;;11.40;10.73;;;22.30;99.90;;;;;;5076319;28;20296;-52
2023/07/14 08:16:37;;;;;;;11.93;11.43;;;22.50;99.90;;;;;;5082276;28;20610;-51
2023/07/14 08:19:03;;;;;;;12.10;11.60;;;22.60;99.90;;;;;;5076144;28;20426;-51
2023/07/14 08:21:34;;;;;;;11.63;11.03;;;22.70;99.90;;;;;;5082079;28;20724;-52
2023/07/14 08:24:00;;;;;;;11.83;11.03;;;22.90;99.90;;;;;;5081715;28;20441;-54
2023/07/14 08:26:26;;;;;;;12.00;11.50;;;23.10;99.90;;;;;;5082205;28;20916;-51
2023/07/14 08:28:51;;;;;;;10.90;10.40;;;23.20;99.90;;;;;;5081669;28;20646;-57
2023/07/14 08:31:17;;;;;;;11.53;11.03;;;23.30;99.90;;;;;;5081902;28;20172;-52
2023/07/14 08:33:44;;;;;;;11.90;11.30;;;23.50;99.90;;;;;;5081568;28;20181;-51
2023/07/14 08:36:11;;;;;;;11.97;11.27;;;23.70;99.90;;;;;;5081765;28;20700;-54
2023/07/14 08:38:38;;;;;;;12.27;11.77;;;23.80;99.90;;;;;;5074345;28;21422;-49
2023/07/14 08:41:29;;;;;;;11.83;11.03;;;24.00;99.90;;;;;;5074341;28;20807;-48
2023/07/14 08:44:31;;;;;;;11.87;11.27;;;24.20;99.90;;;;;;5081796;28;20423;-56
2023/07/14 08:47:03;;;;;;;11.83;11.13;;;24.30;99.90;;;;;;5081720;28;20450;-55
2023/07/14 08:49:36;;;;;;;11.80;11.03;;;24.30;99.90;;;;;;5081440;28;20450;-50
2023/07/14 08:52:26;;;;;;;12.27;11.57;;;24.50;99.90;;;;;;5081626;28;20440;-48
2023/07/14 08:55:18;;;;;;;12.33;11.70;;;24.70;99.90;;;;;;5078405;28;20533;-53
2023/07/14 08:57:50;;;;;;;11.40;10.90;;;24.90;99.90;;;;;;5075718;28;20438;-51
2023/07/14 09:00:24;;;;;;;11.93;11.43;;;25.10;99.90;;;;;;5081580;28;20421;-50
2023/07/14 09:03:03;;;;;;;11.37;10.80;;;25.30;99.90;;;;;;5080979;28;20700;-57
2023/07/14 09:05:31;;;;;;;11.90;11.30;;;25.50;99.90;;;;;;5081208;28;20417;-47
2023/07/14 09:07:57;;;;;;;11.00;10.50;;;25.60;99.90;;;;;;5070830;28;20491;-55
2023/07/14 09:10:43;;;;;;;11.53;10.83;;;25.80;99.90;;;;;;5073727;28;20470;-50
2023/07/14 09:13:32;;;;;;;11.47;10.93;;;26.00;99.90;;;;;;5079884;28;20968;-54
2023/07/14 09:15:58;;;;;;;11.47;10.90;;;26.20;99.90;;;;;;5080823;28;20402;-51
2023/07/14 09:18:36;;;;;;;11.60;11.00;;;26.40;99.90;;;;;;5081197;28;20407;-50
2023/07/14 09:21:24;;;;;;;10.77;10.27;;;26.70;99.90;;;;;;5079399;28;20514;-53
2023/07/14 09:23:49;;;;;;;10.97;10.47;;;27.00;99.90;;;;;;5067896;28;20912;-52
2023/07/14 09:26:46;;;;;;;11.30;10.80;;;27.60;99.90;;;;;;5080846;28;20466;-53
2023/07/14 09:29:19;;;;;;;11.93;11.43;;;28.20;99.90;;;;;;5076444;28;20547;-55
2023/07/14 09:31:48;;;;;;;10.63;10.13;;;28.50;99.90;;;;;;5081201;28;20413;-56
2023/07/14 09:34:22;;;;;;;11.80;11.30;;;29.00;99.90;;;;;;5080522;28;20426;-55
2023/07/14 09:36:48;;;;;;;11.47;11.07;;;29.50;99.90;;;;;;5079298;28;20587;-56
2023/07/14 09:39:27;;;;;;;11.30;10.80;;;29.80;99.90;;;;;;5062945;28;20761;-55
2023/07/14 09:41:56;;;;;;;11.33;10.73;;;30.20;99.90;;;;;;5062816;28;20181;-56
2023/07/14 09:44:23;;;;;;;12.30;11.70;;;30.40;99.90;;;;;;5067897;28;20418;-54
2023/07/14 09:46:50;;;;;;;12.00;11.50;;;30.40;99.90;;;;;;5080375;28;20908;-51
2023/07/14 09:49:30;;;;;;;10.97;10.50;;;30.70;99.90;;;;;;5078516;28;20462;-53
2023/07/14 09:52:27;;;;;;;11.67;11.10;;;31.10;99.90;;;;;;5080271;28;20447;-53
2023/07/14 09:54:55;;;;;;;11.40;10.90;;;31.60;99.90;;;;;;5057563;28;20426;-50
2023/07/14 09:57:25;;;;;;;10.93;10.40;;;32.00;99.90;;;;;;5068265;28;20763;-54
2023/07/14 10:00:00;;;;;;;11.30;10.80;;;32.60;99.90;;;;;;5067210;28;20878;-54
2023/07/14 10:02:29;;;;;;;12.53;11.93;;;33.30;99.90;;;;;;5080308;28;20414;-50
2023/07/14 10:04:59;;;;;;;11.57;11.07;;;33.30;99.90;;;;;;5080164;28;20415;-51
2023/07/14 10:07:25;;;;;;;12.00;11.50;;;33.80;1.00;;;;;;5079845;28;20529;-51
2023/07/14 10:10:07;;;;;;;12.40;11.80;;;34.10;1.00;;;;;;5079986;28;20456;-52
2023/07/14 10:12:40;;;;;;;12.23;11.53;;;34.10;99.90;;;;;;5080440;28;20173;-55
2023/07/14 10:15:33;;;;;;;12.00;11.50;;;34.20;1.00;;;;;;5080051;28;20765;-52
2023/07/14 10:18:03;;;;;;;11.90;11.40;;;33.70;1.00;;;;;;5079417;28;20406;-51
2023/07/14 10:20:31;;;;;;;11.90;11.30;;;33.20;1.00;;;;;;5079919;28;21186;-53
2023/07/14 10:23:00;;;;;;;12.30;11.50;;;32.40;1.00;;;;;;5079259;28;20418;-54
2023/07/14 10:25:28;;;;;;;11.60;11.10;;;32.20;1.00;;;;;;5079099;28;20466;-54
2023/07/14 10:28:12;;;;;;;11.73;11.10;;;31.90;1.00;;;;;;5073510;28;20443;-50
2023/07/14 10:30:57;;;;;;;10.60;10.20;;;32.10;1.00;;;;;;5079663;28;20993;-56
2023/07/14 10:33:43;;;;;;;11.53;11.03;;;32.90;1.00;;;;;;5067638;28;20446;-54
2023/07/14 10:36:17;;;;;;;11.70;11.10;;;33.80;1.00;;;;;;5072786;28;20510;-56
2023/07/14 10:38:50;;;;;;;11.67;11.17;;;34.10;1.00;;;;;;5079304;28;21085;-49
2023/07/14 10:41:18;;;;;;;11.73;11.23;;;34.10;1.00;;;;;;5079637;28;20538;-48
2023/07/14 10:44:03;;;;;;;11.90;11.40;;;34.60;1.00;;;;;;5079643;28;20476;-52
2023/07/14 10:46:35;;;;;;;11.70;11.20;;;35.20;1.00;;;;;;5071402;28;20472;-51
2023/07/14 10:49:15;;;;;;;11.80;11.30;;;35.90;1.00;;;;;;5079328;28;20454;-51
2023/07/14 10:51:52;;;;;;;11.10;10.60;;;36.10;1.00;;;;;;5079330;28;20501;-54
2023/07/14 10:54:26;;;;;;;11.73;11.20;;;35.90;1.00;;;;;;5068776;28;20861;-50
2023/07/14 10:56:58;;;;;;;11.83;11.33;;;35.80;1.00;;;;;;5066625;28;20419;-52
2023/07/14 10:59:39;;;;;;;11.33;10.83;;;35.70;1.00;;;;;;5079146;28;20448;-50
2023/07/14 11:02:43;;;;;;;12.07;11.27;;;35.90;1.00;;;;;;5077899;28;20503;-57
2023/07/14 11:05:14;;;;;;;11.70;11.20;;;36.10;61.80;;;;;;5055272;28;20438;-55
2023/07/14 11:07:40;;;;;;;11.67;11.07;;;36.10;99.90;;;;;;5079133;28;20415;-51
2023/07/14 11:10:31;;;;;;;11.63;11.13;;;36.20;99.90;;;;;;5079033;28;20453;-53
2023/07/14 11:13:16;;;;;;;11.67;11.17;;;36.00;99.90;;;;;;5076590;28;20188;-50
2023/07/14 11:16:34;;;;;;;12.40;11.43;;;35.40;1.00;;;;;;5072709;28;20426;-51
2023/07/14 11:19:07;;;;;;;11.90;11.37;;;35.50;1.00;;;;;;5062651;28;20434;-47
2023/07/14 11:21:46;;;;;;;10.53;10.03;;;35.20;28.80;;;;;;5077762;28;20449;-56
2023/07/14 11:24:35;;;;;;;11.10;10.57;;;35.30;99.90;;;;;;5078670;28;20449;-54
2023/07/14 11:27:27;;;;;;;11.77;11.00;;;35.70;1.00;;;;;;5078831;28;20415;-55
2023/07/14 11:30:33;;;;;;;11.20;10.70;;;36.30;1.00;;;;;;5078963;28;20466;-51
2023/07/14 11:33:40;;;;;;;11.00;10.50;;;37.00;1.00;;;;;;5076566;28;20437;-52
2023/07/14 11:36:15;;;;;;;10.90;10.40;;;37.60;99.90;;;;;;5078959;28;20422;-51
2023/07/14 11:38:58;;;;;;;11.47;10.97;;;37.80;13.20;;;;;;5065727;28;20456;-51
2023/07/14 11:41:25;;;;;;;10.87;10.47;;;38.10;1.00;;;;;;5078933;28;20425;-50
2023/07/14 11:43:52;;;;;;;11.87;11.37;;;37.50;1.00;;;;;;5075657;28;20767;-52
2023/07/14 11:46:21;;;;;;;12.00;11.43;;;36.70;99.90;;;;;;5070898;28;20970;-58
2023/07/14 11:48:49;;;;;;;11.50;11.00;;;36.40;99.90;;;;;;5077764;28;20971;-55
2023/07/14 11:51:17;;;;;;;12.43;11.83;;;35.80;1.00;;;;;;5073799;28;20430;-51
2023/07/14 11:54:17;;;;;;;12.00;11.50;;;35.30;99.90;;;;;;5078021;28;20433;-50
2023/07/14 11:57:00;;;;;;;12.60;12.00;;;34.80;99.90;;;;;;5065589;28;20411;-52
2023/07/14 11:59:31;;;;;;;12.10;11.50;;;34.20;1.00;;;;;;5076739;28;20429;-54
2023/07/14 12:02:27;;;;;;;11.60;11.10;;;34.30;99.90;;;;;;5078692;28;20414;-50
2023/07/14 12:05:30;;;;;;;11.90;11.40;;;34.70;1.00;;;;;;5078369;28;20422;-53
2023/07/14 12:08:04;;;;;;;11.17;10.67;;;35.20;1.00;;;;;;5072410;28;20430;-53
2023/07/14 12:10:42;;;;;;;11.30;10.60;;;35.30;1.00;;;;;;5060045;28;20851;-57
2023/07/14 12:13:20;;;;;;;12.20;11.60;;;35.10;1.00;;;;;;5074193;28;20415;-46
2023/07/14 12:15:54;;;;;;;12.63;12.03;;;34.70;1.00;;;;;;5063977;28;20438;-59
2023/07/14 12:18:22;;;;;;;11.60;11.00;;;34.20;1.00;;;;;;5081978;28;20421;-50
2023/07/14 12:20:49;;;;;;;12.13;11.53;;;33.80;1.00;;;;;;5082014;28;21085;-54
2023/07/14 12:23:27;;;;;;;12.60;12.00;;;33.60;1.00;;;;;;5081824;28;20419;-56
2023/07/14 12:26:13;;;;;;;12.90;12.20;;;33.50;1.00;;;;;;5081434;28;20523;-54
2023/07/14 12:28:38;;;;;;;11.97;11.47;;;33.40;1.00;;;;;;5078401;28;20566;-56
2023/07/14 12:31:11;;;;;;;12.20;11.60;;;33.20;1.00;;;;;;5081660;28;20506;-55
2023/07/14 12:33:39;;;;;;;12.57;12.03;;;33.10;1.00;;;;;;5079360;28;20650;-54
2023/07/14 12:36:05;;;;;;;11.13;10.63;;;32.90;1.00;;;;;;5082242;28;20432;-56
2023/07/14 12:38:33;;;;;;;11.80;11.30;;;32.80;1.00;;;;;;5081839;28;20422;-52
2023/07/14 12:40:59;;;;;;;12.30;11.70;;;32.80;1.00;;;;;;5081825;28;20480;-53
2023/07/14 12:43:40;;;;;;;11.67;11.17;;;32.70;1.00;;;;;;5075882;28;20876;-52
2023/07/14 12:46:18;;;;;;;12.50;11.90;;;32.70;99.90;;;;;;5079274;28;20418;-53
2023/07/14 12:48:44;;;;;;;12.80;12.20;;;32.70;99.90;;;;;;5071485;28;20468;-52